sensor_id;sensor_type;location;lat;lon;timestamp;pressure;altitude;pressure_sealevel;temperature;humidity
22605;BME280;11469;49.024;8.246;2023-05-23T00:01:26;100243.28;;;17.54;100.00
22605;BME280;11469;49.024;8.246;2023-05-23T00:03:51;100238.00;;;17.56;100.00
22605;BME280;11469;49.024;8.246;2023-05-23T00:06:20;100240.41;;;17.57;100.00
22605;BME280;11469;49.024;8.246;2023-05-23T00:08:48;100238.78;;;17.60;100.00
22605;BME280;11469;49.024;8.246;2023-05-23T00:11:14;100235.13;;;17.63;100.00
22605;BME280;11469;49.024;8.246;2023-05-23T00:13:41;100230.28;;;17.64;100.00
22605;BME280;11469;49.024;8.246;2023-05-23T00:16:08;100237.16;;;17.63;100.00
22605;BME280;11469;49.024;8.246;2023-05-23T00:18:37;100250.94;;;17.61;100.00
22605;BME280;11469;49.024;8.246;2023-05-23T00:21:04;100249.31;;;17.59;100.00
22605;BME280;11469;49.024;8.246;2023-05-23T00:23:30;100244.88;;;17.58;100.00
22605;BME280;11469;49.024;8.246;2023-05-23T00:25:58;100250.53;;;17.58;100.00
22605;BME280;11469;49.024;8.246;2023-05-23T00:28:24;100243.25;;;17.57;100.00
22605;BME280;11469;49.024;8.246;2023-05-23T00:30:50;100245.69;;;17.55;100.00
22605;BME280;11469;49.024;8.246;2023-05-23T00:33:16;100252.19;;;17.52;100.00
22605;BME280;11469;49.024;8.246;2023-05-23T00:35:41;100246.50;;;17.52;100.00
22605;BME280;11469;49.024;8.246;2023-05-23T00:38:07;100247.34;;;17.49;100.00
22605;BME280;11469;49.024;8.246;2023-05-23T00:40:33;100246.16;;;17.47;100.00
22605;BME280;11469;49.024;8.246;2023-05-23T00:42:59;100244.16;;;17.44;100.00
22605;BME280;11469;49.024;8.246;2023-05-23T00:45:25;100256.31;;;17.41;100.00
22605;BME280;11469;49.024;8.246;2023-05-23T00:47:51;100261.59;;;17.39;100.00
22605;BME280;11469;49.024;8.246;2023-05-23T00:50:17;100254.69;;;17.40;100.00
22605;BME280;11469;49.024;8.246;2023-05-23T00:52:44;100252.66;;;17.40;100.00
22605;BME280;11469;49.024;8.246;2023-05-23T00:55:11;100265.22;;;17.39;100.00
22605;BME280;11469;49.024;8.246;2023-05-23T00:57:37;100252.28;;;17.38;100.00
22605;BME280;11469;49.024;8.246;2023-05-23T01:00:09;100258.34;;;17.40;100.00
22605;BME280;11469;49.024;8.246;2023-05-23T01:02:46;100259.56;;;17.39;100.00
22605;BME280;11469;49.024;8.246;2023-05-23T01:05:13;100256.31;;;17.37;100.00
22605;BME280;11469;49.024;8.246;2023-05-23T01:07:44;100256.75;;;17.36;100.00
22605;BME280;11469;49.024;8.246;2023-05-23T01:10:11;100255.94;;;17.35;100.00
22605;BME280;11469;49.024;8.246;2023-05-23T01:12:55;100256.34;;;17.34;100.00
22605;BME280;11469;49.024;8.246;2023-05-23T01:15:56;100259.19;;;17.30;100.00
22605;BME280;11469;49.024;8.246;2023-05-23T01:18:37;100259.59;;;17.25;100.00
22605;BME280;11469;49.024;8.246;2023-05-23T01:21:10;100257.19;;;17.23;100.00
22605;BME280;11469;49.024;8.246;2023-05-23T01:28:45;100258.44;;;17.12;100.00
22605;BME280;11469;49.024;8.246;2023-05-23T01:31:11;100255.22;;;17.10;100.00
22605;BME280;11469;49.024;8.246;2023-05-23T01:33:38;100264.50;;;17.10;100.00
22605;BME280;11469;49.024;8.246;2023-05-23T01:36:05;100267.75;;;17.05;100.00
22605;BME280;11469;49.024;8.246;2023-05-23T01:38:30;100266.19;;;17.01;100.00
22605;BME280;11469;49.024;8.246;2023-05-23T01:40:56;100265.38;;;16.97;100.00
22605;BME280;11469;49.024;8.246;2023-05-23T01:43:23;100277.09;;;16.99;100.00
22605;BME280;11469;49.024;8.246;2023-05-23T01:45:51;100269.44;;;16.85;100.00
22605;BME280;11469;49.024;8.246;2023-05-23T01:48:18;100274.72;;;16.76;100.00
22605;BME280;11469;49.024;8.246;2023-05-23T01:50:45;100271.91;;;16.69;100.00
22605;BME280;11469;49.024;8.246;2023-05-23T01:53:12;100279.97;;;16.70;100.00
22605;BME280;11469;49.024;8.246;2023-05-23T01:55:39;100277.94;;;16.64;100.00
22605;BME280;11469;49.024;8.246;2023-05-23T01:58:05;100275.09;;;16.60;100.00
22605;BME280;11469;49.024;8.246;2023-05-23T02:00:31;100282.38;;;16.57;100.00
22605;BME280;11469;49.024;8.246;2023-05-23T02:02:56;100277.53;;;16.58;100.00
22605;BME280;11469;49.024;8.246;2023-05-23T02:05:21;100279.16;;;16.59;100.00
22605;BME280;11469;49.024;8.246;2023-05-23T02:07:47;100282.38;;;16.61;100.00
22605;BME280;11469;49.024;8.246;2023-05-23T02:10:12;100281.97;;;16.59;100.00
22605;BME280;11469;49.024;8.246;2023-05-23T02:12:38;100282.78;;;16.56;100.00
22605;BME280;11469;49.024;8.246;2023-05-23T02:15:03;100282.38;;;16.57;100.00
22605;BME280;11469;49.024;8.246;2023-05-23T02:17:29;100277.13;;;16.56;100.00
22605;BME280;11469;49.024;8.246;2023-05-23T02:19:54;100276.34;;;16.52;100.00
22605;BME280;11469;49.024;8.246;2023-05-23T02:22:24;100281.19;;;16.51;100.00
22605;BME280;11469;49.024;8.246;2023-05-23T02:24:50;100288.47;;;16.49;100.00
22605;BME280;11469;49.024;8.246;2023-05-23T02:27:16;100284.84;;;16.45;100.00
22605;BME280;11469;49.024;8.246;2023-05-23T02:29:41;100288.47;;;16.42;100.00
22605;BME280;11469;49.024;8.246;2023-05-23T02:32:06;100288.88;;;16.40;100.00
22605;BME280;11469;49.024;8.246;2023-05-23T02:34:32;100288.06;;;16.40;100.00
22605;BME280;11469;49.024;8.246;2023-05-23T02:36:57;100284.44;;;16.36;100.00
22605;BME280;11469;49.024;8.246;2023-05-23T02:39:22;100292.91;;;16.29;100.00
22605;BME280;11469;49.024;8.246;2023-05-23T02:41:48;100301.38;;;16.25;100.00
22605;BME280;11469;49.024;8.246;2023-05-23T02:44:13;100303.00;;;16.19;100.00
22605;BME280;11469;49.024;8.246;2023-05-23T02:46:39;100303.38;;;16.14;100.00
22605;BME280;11469;49.024;8.246;2023-05-23T02:49:04;100298.94;;;16.13;100.00
22605;BME280;11469;49.024;8.246;2023-05-23T02:51:30;100295.28;;;16.09;100.00
22605;BME280;11469;49.024;8.246;2023-05-23T02:53:56;100288.84;;;16.05;100.00
22605;BME280;11469;49.024;8.246;2023-05-23T02:56:21;100288.03;;;15.97;100.00
22605;BME280;11469;49.024;8.246;2023-05-23T02:58:47;100290.44;;;15.88;100.00
22605;BME280;11469;49.024;8.246;2023-05-23T03:01:13;100283.53;;;15.78;100.00
22605;BME280;11469;49.024;8.246;2023-05-23T03:03:38;100290.81;;;15.79;100.00
22605;BME280;11469;49.024;8.246;2023-05-23T03:06:06;100280.31;;;15.80;100.00
22605;BME280;11469;49.024;8.246;2023-05-23T03:08:31;100289.19;;;15.78;100.00
22605;BME280;11469;49.024;8.246;2023-05-23T03:10:57;100289.59;;;15.73;100.00
22605;BME280;11469;49.024;8.246;2023-05-23T03:13:22;100291.59;;;15.73;100.00
22605;BME280;11469;49.024;8.246;2023-05-23T03:15:48;100296.03;;;15.74;100.00
22605;BME280;11469;49.024;8.246;2023-05-23T03:18:13;100300.06;;;15.66;100.00
22605;BME280;11469;49.024;8.246;2023-05-23T03:20:38;100299.63;;;15.60;100.00
22605;BME280;11469;49.024;8.246;2023-05-23T03:23:04;100304.47;;;15.63;100.00
22605;BME280;11469;49.024;8.246;2023-05-23T03:25:29;100302.06;;;15.58;100.00
22605;BME280;11469;49.024;8.246;2023-05-23T03:27:55;100309.34;;;15.59;100.00
22605;BME280;11469;49.024;8.246;2023-05-23T03:30:20;100310.16;;;15.59;100.00
22605;BME280;11469;49.024;8.246;2023-05-23T03:32:46;100319.00;;;15.58;100.00
22605;BME280;11469;49.024;8.246;2023-05-23T03:35:11;100316.19;;;15.58;100.00
22605;BME280;11469;49.024;8.246;2023-05-23T03:37:37;100321.81;;;15.62;100.00
22605;BME280;11469;49.024;8.246;2023-05-23T03:40:02;100326.69;;;15.65;100.00
22605;BME280;11469;49.024;8.246;2023-05-23T03:42:29;100320.63;;;15.63;100.00
22605;BME280;11469;49.024;8.246;2023-05-23T03:44:54;100329.09;;;15.66;100.00
22605;BME280;11469;49.024;8.246;2023-05-23T03:47:20;100317.41;;;15.68;100.00
22605;BME280;11469;49.024;8.246;2023-05-23T03:49:45;100325.09;;;15.71;100.00
22605;BME280;11469;49.024;8.246;2023-05-23T03:52:11;100324.28;;;15.74;100.00
22605;BME280;11469;49.024;8.246;2023-05-23T03:54:36;100321.88;;;15.76;100.00
22605;BME280;11469;49.024;8.246;2023-05-23T03:57:02;100327.16;;;15.81;100.00
22605;BME280;11469;49.024;8.246;2023-05-23T03:59:27;100331.19;;;15.83;100.00
22605;BME280;11469;49.024;8.246;2023-05-23T04:01:53;100328.78;;;15.85;100.00
22605;BME280;11469;49.024;8.246;2023-05-23T04:04:19;100335.66;;;15.91;100.00
22605;BME280;11469;49.024;8.246;2023-05-23T04:06:45;100337.28;;;15.96;100.00
22605;BME280;11469;49.024;8.246;2023-05-23T04:09:12;100341.75;;;16.01;100.00
22605;BME280;11469;49.024;8.246;2023-05-23T04:11:38;100347.81;;;16.03;100.00
22605;BME280;11469;49.024;8.246;2023-05-23T04:14:03;100342.16;;;16.06;100.00
22605;BME280;11469;49.024;8.246;2023-05-23T04:16:29;100358.28;;;16.09;100.00
22605;BME280;11469;49.024;8.246;2023-05-23T04:18:57;100354.25;;;16.10;100.00
22605;BME280;11469;49.024;8.246;2023-05-23T04:21:23;100356.28;;;16.13;100.00
22605;BME280;11469;49.024;8.246;2023-05-23T04:23:48;100355.88;;;16.15;100.00
22605;BME280;11469;49.024;8.246;2023-05-23T04:26:13;100355.88;;;16.11;100.00
22605;BME280;11469;49.024;8.246;2023-05-23T04:28:39;100357.09;;;16.17;100.00
22605;BME280;11469;49.024;8.246;2023-05-23T04:31:04;100359.13;;;16.20;100.00
22605;BME280;11469;49.024;8.246;2023-05-23T04:33:30;100360.75;;;16.21;100.00
22605;BME280;11469;49.024;8.246;2023-05-23T04:35:55;100364.81;;;16.24;100.00
22605;BME280;11469;49.024;8.246;2023-05-23T04:38:21;100359.16;;;16.27;100.00
22605;BME280;11469;49.024;8.246;2023-05-23T04:40:49;100359.97;;;16.32;100.00
22605;BME280;11469;49.024;8.246;2023-05-23T04:43:16;100360.78;;;16.36;100.00
22605;BME280;11469;49.024;8.246;2023-05-23T04:45:42;100372.09;;;16.43;100.00
22605;BME280;11469;49.024;8.246;2023-05-23T04:48:08;100366.47;;;16.46;100.00
22605;BME280;11469;49.024;8.246;2023-05-23T04:50:33;100374.94;;;16.46;100.00
22605;BME280;11469;49.024;8.246;2023-05-23T04:53:00;100376.97;;;16.49;100.00
22605;BME280;11469;49.024;8.246;2023-05-23T04:55:25;100373.34;;;16.52;100.00
22605;BME280;11469;49.024;8.246;2023-05-23T04:57:51;100369.69;;;16.59;100.00
22605;BME280;11469;49.024;8.246;2023-05-23T05:00:16;100368.50;;;16.67;100.00
22605;BME280;11469;49.024;8.246;2023-05-23T05:02:42;100375.38;;;16.73;100.00
22605;BME280;11469;49.024;8.246;2023-05-23T05:05:08;100370.53;;;16.77;100.00
22605;BME280;11469;49.024;8.246;2023-05-23T05:07:33;100373.34;;;16.84;100.00
22605;BME280;11469;49.024;8.246;2023-05-23T05:10:01;100374.16;;;16.92;100.00
22605;BME280;11469;49.024;8.246;2023-05-23T05:12:26;100374.97;;;17.00;100.00
22605;BME280;11469;49.024;8.246;2023-05-23T05:14:52;100383.44;;;17.07;100.00
22605;BME280;11469;49.024;8.246;2023-05-23T05:17:17;100381.00;;;17.16;100.00
22605;BME280;11469;49.024;8.246;2023-05-23T05:19:44;100380.19;;;17.22;100.00
22605;BME280;11469;49.024;8.246;2023-05-23T05:22:10;100381.78;;;17.34;100.00
22605;BME280;11469;49.024;8.246;2023-05-23T05:24:35;100393.91;;;17.42;100.00
22605;BME280;11469;49.024;8.246;2023-05-23T05:27:01;100390.59;;;17.54;100.00
22605;BME280;11469;49.024;8.246;2023-05-23T05:29:26;100398.69;;;17.70;100.00
22605;BME280;11469;49.024;8.246;2023-05-23T05:31:51;100392.53;;;17.93;100.00
22605;BME280;11469;49.024;8.246;2023-05-23T05:34:17;100396.84;;;18.18;100.00
22605;BME280;11469;49.024;8.246;2023-05-23T05:36:43;100407.25;;;18.43;100.00
22605;BME280;11469;49.024;8.246;2023-05-23T05:39:12;100415.25;;;18.55;100.00
22605;BME280;11469;49.024;8.246;2023-05-23T05:41:38;100406.31;;;18.64;99.92
22605;BME280;11469;49.024;8.246;2023-05-23T05:44:05;100409.41;;;18.83;96.96
22605;BME280;11469;49.024;8.246;2023-05-23T05:46:30;100405.97;;;19.03;94.15
22605;BME280;11469;49.024;8.246;2023-05-23T05:48:55;100411.56;;;19.13;91.57
22605;BME280;11469;49.024;8.246;2023-05-23T05:51:21;100408.13;;;19.33;89.15
22605;BME280;11469;49.024;8.246;2023-05-23T05:53:46;100414.94;;;18.98;89.04
22605;BME280;11469;49.024;8.246;2023-05-23T05:56:13;100411.97;;;19.12;91.28
22605;BME280;11469;49.024;8.246;2023-05-23T05:58:39;100423.75;;;19.10;90.48
22605;BME280;11469;49.024;8.246;2023-05-23T06:01:04;100430.75;;;18.99;89.54
22605;BME280;11469;49.024;8.246;2023-05-23T06:03:30;100430.44;;;18.89;89.39
22605;BME280;11469;49.024;8.246;2023-05-23T06:05:56;100437.84;;;18.76;88.95
22605;BME280;11469;49.024;8.246;2023-05-23T06:08:21;100442.31;;;18.74;89.84
22605;BME280;11469;49.024;8.246;2023-05-23T06:10:47;100445.97;;;18.74;90.04
22605;BME280;11469;49.024;8.246;2023-05-23T06:13:12;100447.69;;;18.61;90.98
22605;BME280;11469;49.024;8.246;2023-05-23T06:15:38;100458.22;;;18.53;91.98
22605;BME280;11469;49.024;8.246;2023-05-23T06:18:03;100449.03;;;18.35;91.96
22605;BME280;11469;49.024;8.246;2023-05-23T06:20:28;100451.47;;;18.37;92.38
22605;BME280;11469;49.024;8.246;2023-05-23T06:22:54;100461.66;;;18.23;94.01
22605;BME280;11469;49.024;8.246;2023-05-23T06:25:19;100453.56;;;18.18;93.96
22605;BME280;11469;49.024;8.246;2023-05-23T06:27:45;100462.94;;;18.05;94.05
22605;BME280;11469;49.024;8.246;2023-05-23T06:30:13;100462.88;;;18.22;92.47
22605;BME280;11469;49.024;8.246;2023-05-23T06:32:39;100468.56;;;18.19;92.71
22605;BME280;11469;49.024;8.246;2023-05-23T06:35:05;100477.84;;;18.27;92.86
22605;BME280;11469;49.024;8.246;2023-05-23T06:37:30;100481.13;;;18.14;91.62
22605;BME280;11469;49.024;8.246;2023-05-23T06:39:56;100480.31;;;18.21;90.46
22605;BME280;11469;49.024;8.246;2023-05-23T06:42:21;100486.34;;;18.27;91.32
22605;BME280;11469;49.024;8.246;2023-05-23T06:44:47;100491.50;;;18.46;90.57
22605;BME280;11469;49.024;8.246;2023-05-23T06:47:12;100492.72;;;18.45;90.51
22605;BME280;11469;49.024;8.246;2023-05-23T06:49:37;100488.25;;;18.51;87.19
22605;BME280;11469;49.024;8.246;2023-05-23T06:52:03;100478.47;;;18.63;86.84
22605;BME280;11469;49.024;8.246;2023-05-23T06:54:28;100491.09;;;18.51;84.40
22605;BME280;11469;49.024;8.246;2023-05-23T06:56:53;100501.16;;;18.70;83.12
22605;BME280;11469;49.024;8.246;2023-05-23T06:59:19;100486.53;;;17.84;85.84
22605;BME280;11469;49.024;8.246;2023-05-23T07:01:44;100500.81;;;18.53;83.90
22605;BME280;11469;49.024;8.246;2023-05-23T07:04:10;100500.78;;;18.61;82.61
22605;BME280;11469;49.024;8.246;2023-05-23T07:06:36;100498.47;;;18.34;83.48
22605;BME280;11469;49.024;8.246;2023-05-23T07:09:03;100515.91;;;18.36;82.82
22605;BME280;11469;49.024;8.246;2023-05-23T07:11:29;100515.06;;;18.43;83.23
22605;BME280;11469;49.024;8.246;2023-05-23T07:13:54;100525.53;;;18.53;80.81
22605;BME280;11469;49.024;8.246;2023-05-23T07:16:20;100519.44;;;18.65;80.61
22605;BME280;11469;49.024;8.246;2023-05-23T07:18:45;100519.72;;;18.85;79.23
22605;BME280;11469;49.024;8.246;2023-05-23T07:21:11;100527.75;;;18.94;77.72
22605;BME280;11469;49.024;8.246;2023-05-23T07:23:36;100524.97;;;18.86;77.01
22605;BME280;11469;49.024;8.246;2023-05-23T07:26:01;100525.25;;;18.26;78.59
22605;BME280;11469;49.024;8.246;2023-05-23T07:28:27;100536.97;;;18.35;78.41
22605;BME280;11469;49.024;8.246;2023-05-23T07:30:53;100535.75;;;18.36;78.44
22605;BME280;11469;49.024;8.246;2023-05-23T07:33:18;100534.19;;;18.17;79.48
22605;BME280;11469;49.024;8.246;2023-05-23T07:35:45;100541.47;;;18.22;80.61
22605;BME280;11469;49.024;8.246;2023-05-23T07:38:10;100541.84;;;18.35;79.25
22605;BME280;11469;49.024;8.246;2023-05-23T07:40:35;100537.03;;;18.17;79.43
22605;BME280;11469;49.024;8.246;2023-05-23T07:43:02;100541.44;;;18.40;78.51
22605;BME280;11469;49.024;8.246;2023-05-23T07:45:28;100540.16;;;18.48;79.45
22605;BME280;11469;49.024;8.246;2023-05-23T07:47:53;100543.00;;;18.44;78.81
22605;BME280;11469;49.024;8.246;2023-05-23T07:50:19;100539.44;;;18.30;78.83
22605;BME280;11469;49.024;8.246;2023-05-23T07:52:44;100540.31;;;18.09;79.20
22605;BME280;11469;49.024;8.246;2023-05-23T07:55:10;100535.53;;;17.88;81.14
22605;BME280;11469;49.024;8.246;2023-05-23T07:57:35;100541.59;;;17.90;81.50
22605;BME280;11469;49.024;8.246;2023-05-23T08:00:01;100539.09;;;17.99;81.81
22605;BME280;11469;49.024;8.246;2023-05-23T08:02:26;100551.31;;;17.93;80.84
22605;BME280;11469;49.024;8.246;2023-05-23T08:04:52;100552.06;;;18.07;81.23
22605;BME280;11469;49.024;8.246;2023-05-23T08:07:18;100552.03;;;18.21;81.25
22605;BME280;11469;49.024;8.246;2023-05-23T08:09:43;100556.47;;;18.22;79.42
22605;BME280;11469;49.024;8.246;2023-05-23T08:12:09;100559.72;;;18.17;79.50
22605;BME280;11469;49.024;8.246;2023-05-23T08:14:34;100556.94;;;17.96;79.92
22605;BME280;11469;49.024;8.246;2023-05-23T08:17:00;100550.09;;;17.83;80.25
22605;BME280;11469;49.024;8.246;2023-05-23T08:19:26;100557.41;;;17.66;80.91
22605;BME280;11469;49.024;8.246;2023-05-23T08:21:52;100560.63;;;17.79;81.42
22605;BME280;11469;49.024;8.246;2023-05-23T08:24:18;100568.75;;;17.73;81.74
22605;BME280;11469;49.024;8.246;2023-05-23T08:26:44;100560.22;;;17.80;80.55
22605;BME280;11469;49.024;8.246;2023-05-23T08:29:10;100556.56;;;17.87;81.82
22605;BME280;11469;49.024;8.246;2023-05-23T08:31:36;100572.31;;;18.13;81.25
22605;BME280;11469;49.024;8.246;2023-05-23T08:34:01;100576.78;;;17.96;80.30
22605;BME280;11469;49.024;8.246;2023-05-23T08:36:27;100569.50;;;18.02;80.99
22605;BME280;11469;49.024;8.246;2023-05-23T08:38:52;100575.16;;;17.99;79.60
22605;BME280;11469;49.024;8.246;2023-05-23T08:41:20;100584.91;;;17.94;78.81
22605;BME280;11469;49.024;8.246;2023-05-23T08:43:46;100574.41;;;17.91;80.34
22605;BME280;11469;49.024;8.246;2023-05-23T08:46:12;100585.25;;;18.14;79.18
22605;BME280;11469;49.024;8.246;2023-05-23T08:48:38;100578.75;;;18.24;78.40
22605;BME280;11469;49.024;8.246;2023-05-23T08:51:06;100574.28;;;18.37;78.64
22605;BME280;11469;49.024;8.246;2023-05-23T08:53:35;100583.63;;;18.27;76.66
22605;BME280;11469;49.024;8.246;2023-05-23T08:56:01;100583.63;;;18.27;75.49
22605;BME280;11469;49.024;8.246;2023-05-23T08:58:30;100584.06;;;18.11;76.28
22605;BME280;11469;49.024;8.246;2023-05-23T09:00:58;100573.47;;;18.33;75.13
22605;BME280;11469;49.024;8.246;2023-05-23T09:03:27;100581.16;;;18.33;75.15
22605;BME280;11469;49.024;8.246;2023-05-23T09:05:54;100589.59;;;18.50;74.16
22605;BME280;11469;49.024;8.246;2023-05-23T09:08:20;100580.34;;;18.43;74.21
22605;BME280;11469;49.024;8.246;2023-05-23T09:10:49;100595.66;;;18.67;73.62
22605;BME280;11469;49.024;8.246;2023-05-23T09:13:15;100587.97;;;18.64;73.81
22605;BME280;11469;49.024;8.246;2023-05-23T09:16:04;100587.50;;;18.76;71.33
22605;BME280;11469;49.024;8.246;2023-05-23T09:21:02;100600.94;;;18.65;72.15
22605;BME280;11469;49.024;8.246;2023-05-23T09:23:30;100606.69;;;18.40;71.87
22605;BME280;11469;49.024;8.246;2023-05-23T09:25:56;100608.31;;;18.37;72.12
22605;BME280;11469;49.024;8.246;2023-05-23T09:28:21;100611.53;;;18.43;71.22
22605;BME280;11469;49.024;8.246;2023-05-23T09:30:56;100600.50;;;18.59;71.48
22605;BME280;11469;49.024;8.246;2023-05-23T09:33:22;100599.25;;;18.81;70.21
22605;BME280;11469;49.024;8.246;2023-05-23T09:35:47;100609.38;;;18.82;70.21
22605;BME280;11469;49.024;8.246;2023-05-23T09:38:12;100606.84;;;18.99;69.67
22605;BME280;11469;49.024;8.246;2023-05-23T09:40:43;100606.81;;;19.02;69.21
22605;BME280;11469;49.024;8.246;2023-05-23T09:43:09;100608.03;;;19.01;68.95
22605;BME280;11469;49.024;8.246;2023-05-23T09:45:35;100608.53;;;18.89;69.90
22605;BME280;11469;49.024;8.246;2023-05-23T09:48:01;100607.25;;;18.94;68.66
22605;BME280;11469;49.024;8.246;2023-05-23T09:50:31;100605.69;;;18.89;69.90
22605;BME280;11469;49.024;8.246;2023-05-23T09:52:58;100607.56;;;19.13;68.60
22605;BME280;11469;49.024;8.246;2023-05-23T09:55:23;100604.94;;;18.78;69.07
22605;BME280;11469;49.024;8.246;2023-05-23T09:57:52;100597.44;;;19.09;68.90
22605;BME280;11469;49.024;8.246;2023-05-23T10:00:19;100613.34;;;18.92;68.65
22605;BME280;11469;49.024;8.246;2023-05-23T10:08:02;100601.06;;;19.16;67.30
22605;BME280;11469;49.024;8.246;2023-05-23T10:10:32;100598.78;;;19.49;66.08
22605;BME280;11469;49.024;8.246;2023-05-23T10:13:04;100596.63;;;19.71;65.34
22605;BME280;11469;49.024;8.246;2023-05-23T10:15:37;100597.72;;;19.84;63.91
22605;BME280;11469;49.024;8.246;2023-05-23T10:18:15;100591.28;;;19.76;65.12
22605;BME280;11469;49.024;8.246;2023-05-23T10:20:47;100583.38;;;19.95;62.96
22605;BME280;11469;49.024;8.246;2023-05-23T10:23:14;100592.25;;;20.00;63.81
22605;BME280;11469;49.024;8.246;2023-05-23T10:25:42;100596.63;;;20.12;62.81
22605;BME280;11469;49.024;8.246;2023-05-23T10:28:08;100597.28;;;20.27;62.05
22605;BME280;11469;49.024;8.246;2023-05-23T10:30:34;100589.81;;;20.40;61.85
22605;BME280;11469;49.024;8.246;2023-05-23T10:32:59;100598.28;;;20.47;62.20
22605;BME280;11469;49.024;8.246;2023-05-23T10:38:01;100588.00;;;20.87;61.39
22605;BME280;11469;49.024;8.246;2023-05-23T10:45:41;100579.13;;;20.13;62.95
22605;BME280;11469;49.024;8.246;2023-05-23T10:48:39;100592.94;;;19.74;64.54
22605;BME280;11469;49.024;8.246;2023-05-23T10:51:10;100586.84;;;19.72;64.82
22605;BME280;11469;49.024;8.246;2023-05-23T10:53:41;100597.63;;;19.91;64.59
22605;BME280;11469;49.024;8.246;2023-05-23T10:56:08;100593.00;;;20.08;64.70
22605;BME280;11469;49.024;8.246;2023-05-23T10:58:36;100593.16;;;20.31;64.30
22605;BME280;11469;49.024;8.246;2023-05-23T11:01:07;100594.69;;;20.39;62.68
22605;BME280;11469;49.024;8.246;2023-05-23T11:06:38;100591.28;;;20.55;61.87
22605;BME280;11469;49.024;8.246;2023-05-23T11:09:09;100590.25;;;20.72;60.55
22605;BME280;11469;49.024;8.246;2023-05-23T11:14:20;100589.16;;;21.20;59.54
22605;BME280;11469;49.024;8.246;2023-05-23T11:16:55;100587.38;;;21.30;59.09
22605;BME280;11469;49.024;8.246;2023-05-23T11:19:21;100583.00;;;21.25;59.67
22605;BME280;11469;49.024;8.246;2023-05-23T11:21:57;100585.91;;;21.22;59.80
22605;BME280;11469;49.024;8.246;2023-05-23T11:24:23;100589.66;;;21.15;59.93
22605;BME280;11469;49.024;8.246;2023-05-23T11:26:57;100590.41;;;20.58;61.83
22605;BME280;11469;49.024;8.246;2023-05-23T11:29:27;100581.44;;;20.60;62.21
22605;BME280;11469;49.024;8.246;2023-05-23T11:31:54;100585.91;;;20.91;62.16
22605;BME280;11469;49.024;8.246;2023-05-23T11:34:20;100589.66;;;21.15;61.69
22605;BME280;11469;49.024;8.246;2023-05-23T11:36:46;100586.22;;;21.27;60.70
22605;BME280;11469;49.024;8.246;2023-05-23T11:39:12;100593.97;;;21.27;61.28
22605;BME280;11469;49.024;8.246;2023-05-23T11:41:40;100578.78;;;21.33;60.19
22605;BME280;11469;49.024;8.246;2023-05-23T11:44:12;100574.16;;;21.43;60.08
22605;BME280;11469;49.024;8.246;2023-05-23T11:46:38;100579.44;;;21.44;59.61
22605;BME280;11469;49.024;8.246;2023-05-23T11:49:10;100585.13;;;21.17;58.74
22605;BME280;11469;49.024;8.246;2023-05-23T11:51:35;100589.22;;;21.16;59.32
22605;BME280;11469;49.024;8.246;2023-05-23T11:54:01;100574.16;;;21.16;59.57
22605;BME280;11469;49.024;8.246;2023-05-23T11:56:26;100587.28;;;21.10;60.56
22605;BME280;11469;49.024;8.246;2023-05-23T11:58:54;100588.22;;;21.00;60.32
22605;BME280;11469;49.024;8.246;2023-05-23T12:01:19;100583.44;;;20.93;59.94
22605;BME280;11469;49.024;8.246;2023-05-23T12:03:47;100578.50;;;20.97;59.46
22605;BME280;11469;49.024;8.246;2023-05-23T12:06:19;100586.13;;;20.77;59.47
22605;BME280;11469;49.024;8.246;2023-05-23T12:08:46;100588.88;;;20.50;59.46
22605;BME280;11469;49.024;8.246;2023-05-23T12:11:12;100586.00;;;20.53;60.43
22605;BME280;11469;49.024;8.246;2023-05-23T12:13:40;100584.94;;;20.40;61.72
22605;BME280;11469;49.024;8.246;2023-05-23T12:16:06;100575.00;;;20.56;61.00
22605;BME280;11469;49.024;8.246;2023-05-23T12:18:32;100577.06;;;20.51;61.90
22605;BME280;11469;49.024;8.246;2023-05-23T12:20:59;100580.47;;;20.39;62.41
22605;BME280;11469;49.024;8.246;2023-05-23T12:23:27;100570.19;;;20.11;63.54
22605;BME280;11469;49.024;8.246;2023-05-23T12:25:53;100579.28;;;20.33;62.82
22605;BME280;11469;49.024;8.246;2023-05-23T12:28:20;100574.34;;;20.75;62.02
22605;BME280;11469;49.024;8.246;2023-05-23T12:30:46;100571.78;;;21.11;61.43
22605;BME280;11469;49.024;8.246;2023-05-23T12:33:11;100567.03;;;21.01;60.44
22605;BME280;11469;49.024;8.246;2023-05-23T12:38:06;100568.38;;;21.23;60.01
22605;BME280;11469;49.024;8.246;2023-05-23T12:40:32;100571.50;;;21.02;58.13
22605;BME280;11469;49.024;8.246;2023-05-23T12:42:58;100561.03;;;20.95;58.58
22605;BME280;11469;49.024;8.246;2023-05-23T12:45:30;100567.44;;;20.42;60.36
22605;BME280;11469;49.024;8.246;2023-05-23T12:47:56;100565.91;;;20.68;60.80
22605;BME280;11469;49.024;8.246;2023-05-23T12:50:21;100566.06;;;20.53;59.97
22605;BME280;11469;49.024;8.246;2023-05-23T12:52:46;100561.38;;;20.36;61.84
22605;BME280;11469;49.024;8.246;2023-05-23T12:55:12;100555.97;;;20.79;61.36
22605;BME280;11469;49.024;8.246;2023-05-23T12:57:37;100558.88;;;21.03;59.92
22605;BME280;11469;49.024;8.246;2023-05-23T13:00:04;100549.53;;;21.29;59.05
22605;BME280;11469;49.024;8.246;2023-05-23T13:02:30;100552.41;;;21.52;58.81
22605;BME280;11469;49.024;8.246;2023-05-23T13:04:56;100547.84;;;21.59;58.30
22605;BME280;11469;49.024;8.246;2023-05-23T13:07:22;100561.97;;;21.66;58.00
22605;BME280;11469;49.024;8.246;2023-05-23T13:09:48;100553.63;;;21.75;56.32
22605;BME280;11469;49.024;8.246;2023-05-23T13:12:13;100551.69;;;21.72;57.16